Time;durP1;ratioP1;P1;durP2;ratioP2;P2;SDS_P1;SDS_P2;PMS_P1;PMS_P2;Temp;Humidity;BMP_temperature;BMP_pressure;BME280_temperature;BME280_humidity;BME280_pressure;Samples;Min_cycle;Max_cycle;Signal;HPM_P1;HPM_P2
2023/05/26 00:00:32;;;;;;;15.82;6.53;;;;;;;12.64;100.00;97956.59;6155020;23;20398;-77
2023/05/26 00:02:58;;;;;;;12.15;5.90;;;;;;;12.67;100.00;97958.75;6154651;23;20454;-78
2023/05/26 00:05:25;;;;;;;11.30;6.15;;;;;;;12.58;100.00;97962.91;6154810;23;20371;-78
2023/05/26 00:07:53;;;;;;;11.80;6.57;;;;;;;12.46;100.00;97962.25;6155072;23;20371;-78
2023/05/26 00:10:19;;;;;;;14.25;6.18;;;;;;;12.56;100.00;97965.00;6154475;23;20405;-77
2023/05/26 00:12:46;;;;;;;11.45;5.90;;;;;;;12.59;100.00;97961.84;6154495;23;20367;-77
2023/05/26 00:15:13;;;;;;;13.20;5.82;;;;;;;12.65;100.00;97958.19;6154647;23;20563;-78
2023/05/26 00:17:40;;;;;;;14.35;6.15;;;;;;;12.61;100.00;97960.56;6156334;23;20378;-78
2023/05/26 00:20:07;;;;;;;12.23;5.77;;;;;;;12.55;100.00;97963.41;6156789;23;20401;-77
2023/05/26 00:22:35;;;;;;;13.55;6.10;;;;;;;12.59;100.00;97964.50;6157389;23;20371;-78
2023/05/26 00:25:01;;;;;;;11.77;6.05;;;;;;;12.64;100.00;97960.03;6156980;23;20379;-78
2023/05/26 00:27:27;;;;;;;11.23;6.45;;;;;;;12.62;100.00;97962.16;6157065;23;20371;-78
2023/05/26 00:29:53;;;;;;;13.00;6.50;;;;;;;12.68;100.00;97963.81;6156767;23;20781;-78
2023/05/26 00:32:21;;;;;;;12.30;6.22;;;;;;;12.66;100.00;97965.91;6156510;23;20390;-78
2023/05/26 00:34:47;;;;;;;14.50;6.47;;;;;;;12.73;100.00;97960.41;6156365;23;20389;-78
2023/05/26 00:37:13;;;;;;;14.07;6.25;;;;;;;12.85;100.00;97966.38;6156707;23;20371;-78
2023/05/26 00:39:39;;;;;;;15.05;6.43;;;;;;;12.94;100.00;97961.38;6157003;23;20378;-78
2023/05/26 00:42:06;;;;;;;10.93;5.35;;;;;;;13.04;100.00;97959.63;6156502;23;20414;-78
2023/05/26 00:44:32;;;;;;;13.23;5.95;;;;;;;13.01;100.00;97965.44;6156550;23;20699;-77
2023/05/26 00:46:58;;;;;;;14.00;5.80;;;;;;;13.09;100.00;97962.34;6156388;23;20402;-78
2023/05/26 00:49:26;;;;;;;12.23;6.00;;;;;;;13.09;100.00;97959.69;6156334;23;20385;-78
2023/05/26 00:51:53;;;;;;;14.35;5.88;;;;;;;13.20;100.00;97963.25;6155941;23;20385;-78
2023/05/26 00:54:22;;;;;;;11.23;6.22;;;;;;;13.21;100.00;97954.25;6155835;23;20414;-77
2023/05/26 00:56:51;;;;;;;11.73;5.72;;;;;;;13.35;100.00;97950.09;6156047;23;20371;-76
2023/05/26 00:59:18;;;;;;;18.73;6.40;;;;;;;13.40;100.00;97960.75;6156153;23;20462;-77
2023/05/26 01:01:45;;;;;;;13.68;6.18;;;;;;;13.41;100.00;97958.91;6155889;23;20842;-77
2023/05/26 01:04:11;;;;;;;14.87;6.03;;;;;;;13.51;100.00;97969.63;6155580;23;20405;-77
2023/05/26 01:06:41;;;;;;;12.37;6.43;;;;;;;13.54;100.00;97963.78;6155965;23;20363;-76
2023/05/26 01:09:07;;;;;;;12.32;6.00;;;;;;;13.68;100.00;97958.84;6156170;23;20375;-77
2023/05/26 01:11:39;;;;;;;12.95;5.85;;;;;;;13.71;98.65;97959.09;6155802;23;20385;-78
2023/05/26 01:14:11;;;;;;;12.90;5.88;;;;;;;13.81;100.00;97953.06;6155620;23;20374;-78
2023/05/26 01:16:44;;;;;;;16.65;5.90;;;;;;;13.82;100.00;97955.47;6129896;23;20404;-77
2023/05/26 01:19:26;;;;;;;14.52;5.82;;;;;;;13.83;100.00;97951.72;6155992;23;20367;-77
2023/05/26 01:22:01;;;;;;;10.63;5.53;;;;;;;13.90;99.76;97949.66;6155899;23;20820;-77
2023/05/26 01:24:39;;;;;;;14.93;6.63;;;;;;;13.82;100.00;97952.81;6154710;23;20371;-77
2023/05/26 01:27:14;;;;;;;11.90;5.40;;;;;;;13.72;99.78;97955.41;6154279;23;20735;-77
2023/05/26 01:29:42;;;;;;;12.95;6.13;;;;;;;13.66;100.00;97951.09;6154039;23;20367;-77
2023/05/26 01:32:10;;;;;;;11.98;5.20;;;;;;;13.73;99.86;97951.69;6153590;23;20426;-76
2023/05/26 01:34:36;;;;;;;14.60;6.28;;;;;;;13.66;98.27;97952.97;6155002;23;20413;-76
2023/05/26 01:37:03;;;;;;;15.90;5.90;;;;;;;13.59;97.91;97957.72;6154337;23;20383;-76
2023/05/26 01:39:29;;;;;;;13.13;5.70;;;;;;;13.69;97.59;97958.56;6154610;23;20406;-76
2023/05/26 01:42:05;;;;;;;16.55;6.15;;;;;;;13.66;97.11;97960.94;6154331;23;20391;-77
2023/05/26 01:44:36;;;;;;;14.68;5.80;;;;;;;13.63;99.44;97956.94;6153910;23;20403;-77
2023/05/26 01:47:05;;;;;;;17.83;6.63;;;;;;;13.56;95.47;97959.00;6154062;23;20403;-76
2023/05/26 01:49:33;;;;;;;13.68;5.85;;;;;;;13.67;95.00;97954.56;6154452;23;20413;-77
2023/05/26 01:52:05;;;;;;;22.35;6.40;;;;;;;13.51;97.04;97957.13;6154169;23;22535;-77
2023/05/26 01:54:39;;;;;;;16.02;6.00;;;;;;;13.65;95.97;97954.03;6154078;23;20367;-76
2023/05/26 01:57:07;;;;;;;12.23;6.18;;;;;;;13.66;96.00;97953.78;6154840;23;20362;-77
2023/05/26 01:59:34;;;;;;;14.30;5.70;;;;;;;13.70;97.00;97954.84;6155447;23;20481;-76
2023/05/26 02:02:01;;;;;;;14.40;5.82;;;;;;;13.71;96.89;97956.44;6155597;23;20703;-77
2023/05/26 02:04:28;;;;;;;13.73;5.90;;;;;;;13.69;97.14;97955.91;6129105;23;20382;-77
2023/05/26 02:06:55;;;;;;;13.30;6.20;;;;;;;13.72;96.86;97962.56;6155284;23;20906;-78
2023/05/26 02:09:21;;;;;;;13.73;5.93;;;;;;;13.69;97.43;97955.91;6155737;23;20371;-76
2023/05/26 02:11:48;;;;;;;14.57;5.80;;;;;;;13.65;100.00;97954.03;6155460;23;20383;-77
2023/05/26 02:14:15;;;;;;;13.13;6.00;;;;;;;13.63;100.00;97950.81;6155486;23;20374;-78
2023/05/26 02:16:41;;;;;;;12.20;5.95;;;;;;;13.63;100.00;97950.81;6155254;23;20372;-78
2023/05/26 02:19:07;;;;;;;11.98;5.30;;;;;;;13.61;100.00;97955.59;6155107;23;20371;-78
2023/05/26 02:21:35;;;;;;;12.38;5.50;;;;;;;13.57;99.77;97960.63;6155483;23;20363;-77
2023/05/26 02:24:02;;;;;;;16.38;6.28;;;;;;;13.44;100.00;97959.22;6155131;23;20367;-77
2023/05/26 02:26:28;;;;;;;13.02;6.15;;;;;;;13.67;100.00;97952.72;6155333;23;20922;-77
2023/05/26 02:28:55;;;;;;;18.00;6.50;;;;;;;13.50;100.00;97958.19;6155814;23;20370;-77
2023/05/26 02:31:22;;;;;;;11.73;5.68;;;;;;;13.59;100.00;97960.38;6155054;23;20888;-78
2023/05/26 02:33:48;;;;;;;10.88;6.15;;;;;;;13.52;100.00;97961.41;6155245;23;20497;-78
2023/05/26 02:36:15;;;;;;;11.98;5.72;;;;;;;13.48;99.32;97962.94;6154979;23;20428;-78
2023/05/26 02:38:42;;;;;;;13.77;6.18;;;;;;;13.43;99.27;97960.25;6155139;23;20371;-78
2023/05/26 02:41:09;;;;;;;15.85;6.72;;;;;;;13.43;100.00;97959.47;6155049;23;20393;-78
2023/05/26 02:43:37;;;;;;;16.27;6.57;;;;;;;13.51;100.00;97956.31;6155351;23;20699;-77
2023/05/26 02:46:04;;;;;;;14.00;5.80;;;;;;;13.48;100.00;97959.47;6154951;23;20371;-77
2023/05/26 02:48:30;;;;;;;16.77;6.80;;;;;;;13.36;100.00;97951.69;6154971;23;20816;-77
2023/05/26 02:50:59;;;;;;;14.02;6.35;;;;;;;13.50;100.00;97957.38;6154973;23;20438;-77
2023/05/26 02:53:25;;;;;;;12.50;6.00;;;;;;;13.49;99.59;97959.22;6155071;23;20377;-78
2023/05/26 02:55:53;;;;;;;19.35;6.88;;;;;;;13.45;100.00;97957.34;6155628;23;20367;-77
2023/05/26 02:58:20;;;;;;;14.15;6.38;;;;;;;13.43;100.00;97956.78;6155077;23;20402;-78
2023/05/26 03:00:46;;;;;;;12.35;6.18;;;;;;;13.35;100.00;97958.06;6154721;23;20405;-78
2023/05/26 03:03:13;;;;;;;17.08;6.25;;;;;;;13.39;100.00;97958.34;6154691;23;20703;-78
2023/05/26 03:05:41;;;;;;;10.55;5.82;;;;;;;13.41;100.00;97959.72;6155013;23;20371;-78
2023/05/26 03:08:07;;;;;;;12.55;6.30;;;;;;;13.24;100.00;97958.22;6155374;23;20375;-78
2023/05/26 03:10:33;;;;;;;15.15;6.32;;;;;;;13.31;100.00;97958.81;6154780;23;20379;-77
2023/05/26 03:13:02;;;;;;;14.07;6.45;;;;;;;13.31;100.00;97956.16;6155391;23;20371;-78
2023/05/26 03:15:35;;;;;;;15.50;6.38;;;;;;;13.30;100.00;97951.91;6154679;23;20367;-78
2023/05/26 03:18:01;;;;;;;13.23;6.60;;;;;;;13.25;100.00;97947.34;6154939;23;20374;-78
2023/05/26 03:20:27;;;;;;;14.73;6.35;;;;;;;13.32;100.00;97947.94;6128664;23;20867;-77
2023/05/26 03:22:53;;;;;;;13.95;6.22;;;;;;;13.31;100.00;97940.19;6154817;23;20438;-78
2023/05/26 03:25:20;;;;;;;11.90;6.20;;;;;;;13.24;100.00;97943.09;6154917;23;20371;-77
2023/05/26 03:27:46;;;;;;;15.90;6.45;;;;;;;13.13;100.00;97936.09;6155521;23;20375;-78
2023/05/26 03:30:14;;;;;;;18.15;6.32;;;;;;;12.98;100.00;97938.59;6155310;23;20393;-78
2023/05/26 03:32:40;;;;;;;15.70;6.50;;;;;;;12.90;100.00;97937.19;6154905;23;20731;-78
2023/05/26 03:35:09;;;;;;;16.20;6.88;;;;;;;12.79;100.00;97941.59;6155304;23;20454;-78
2023/05/26 03:37:35;;;;;;;16.27;6.95;;;;;;;12.68;100.00;97942.56;6155093;23;20457;-78
2023/05/26 03:40:02;;;;;;;15.00;6.70;;;;;;;12.59;100.00;97953.88;6154859;23;20367;-78
2023/05/26 03:42:28;;;;;;;13.30;7.00;;;;;;;12.58;100.00;97953.06;6155052;23;20711;-78
2023/05/26 03:44:55;;;;;;;16.30;7.00;;;;;;;12.53;100.00;97958.34;6128731;23;20390;-78
2023/05/26 03:47:22;;;;;;;15.48;6.93;;;;;;;12.51;100.00;97951.66;6153496;23;20955;-77
2023/05/26 03:49:50;;;;;;;16.52;6.88;;;;;;;12.43;100.00;97960.88;6154765;23;20381;-78
2023/05/26 03:52:16;;;;;;;13.13;6.47;;;;;;;12.47;100.00;97953.22;6154055;23;20703;-77
2023/05/26 03:54:42;;;;;;;15.57;7.13;;;;;;;12.42;100.00;97959.28;6154595;23;20371;-77
2023/05/26 03:57:08;;;;;;;16.23;6.70;;;;;;;12.48;100.00;97960.16;6155097;23;20436;-77
2023/05/26 03:59:35;;;;;;;15.40;7.25;;;;;;;12.47;100.00;97963.84;6154433;23;20371;-78
2023/05/26 04:02:02;;;;;;;15.30;6.88;;;;;;;12.50;100.00;97956.19;6152998;23;20449;-78
2023/05/26 04:04:29;;;;;;;12.02;6.85;;;;;;;12.49;100.00;97959.88;6154192;23;20454;-78
2023/05/26 04:06:55;;;;;;;15.73;6.90;;;;;;;12.28;100.00;97966.00;6153133;23;20746;-79
2023/05/26 04:09:22;;;;;;;17.30;6.78;;;;;;;12.45;100.00;97964.09;6154522;23;20371;-79
2023/05/26 04:11:48;;;;;;;14.05;6.78;;;;;;;12.50;100.00;97955.38;6152567;23;20393;-79
2023/05/26 04:14:14;;;;;;;16.50;7.07;;;;;;;12.62;100.00;97962.16;6125844;23;20382;-78
2023/05/26 04:16:40;;;;;;;18.17;6.47;;;;;;;12.61;100.00;97965.06;6127912;23;20379;-78
2023/05/26 04:19:07;;;;;;;17.75;7.20;;;;;;;12.63;100.00;97955.00;6154080;23;20673;-79
2023/05/26 04:21:35;;;;;;;14.45;6.90;;;;;;;12.67;100.00;97962.22;6153493;23;20367;-78
2023/05/26 04:24:05;;;;;;;20.63;7.20;;;;;;;12.62;100.00;97964.81;6153845;23;20403;-78
2023/05/26 04:26:33;;;;;;;17.80;7.13;;;;;;;12.78;100.00;97965.75;6154158;23;20776;-78
2023/05/26 04:28:59;;;;;;;20.80;7.25;;;;;;;12.90;100.00;97963.75;6153791;23;20409;-78
2023/05/26 04:31:29;;;;;;;17.98;7.15;;;;;;;12.92;100.00;97966.97;6153573;23;20382;-78
2023/05/26 04:33:56;;;;;;;15.82;7.28;;;;;;;12.96;100.00;97967.25;6153820;23;20411;-78
2023/05/26 04:36:23;;;;;;;15.80;7.22;;;;;;;13.05;100.00;97971.06;6154725;23;20418;-78
2023/05/26 04:38:54;;;;;;;14.82;7.25;;;;;;;13.13;100.00;97970.66;6154885;23;20711;-79
2023/05/26 04:41:20;;;;;;;17.88;7.43;;;;;;;13.13;100.00;97973.31;6154733;23;20374;-76
2023/05/26 04:43:47;;;;;;;16.27;7.32;;;;;;;13.15;100.00;97979.19;6154185;23;20410;-77
2023/05/26 04:46:15;;;;;;;17.05;6.97;;;;;;;13.30;100.00;97979.31;6155161;23;20374;-77
2023/05/26 04:48:41;;;;;;;15.55;6.93;;;;;;;13.33;100.00;97976.13;6156034;23;20428;-76
2023/05/26 04:51:08;;;;;;;20.65;6.75;;;;;;;13.36;100.00;97977.47;6156190;23;20383;-76
2023/05/26 04:53:34;;;;;;;20.98;7.30;;;;;;;13.35;100.00;97970.56;6153871;23;20883;-77
2023/05/26 04:56:05;;;;;;;15.45;7.07;;;;;;;13.47;100.00;97974.63;6155468;23;20371;-77
2023/05/26 04:58:36;;;;;;;15.82;7.15;;;;;;;13.46;100.00;97980.19;6155497;23;20367;-77
2023/05/26 05:01:03;;;;;;;15.13;6.75;;;;;;;13.72;100.00;97974.03;6154183;23;20430;-77
2023/05/26 05:03:29;;;;;;;17.50;7.68;;;;;;;13.64;100.00;97961.19;6156483;23;20439;-77
2023/05/26 05:05:55;;;;;;;19.35;7.10;;;;;;;13.66;100.00;97968.94;6158228;23;20898;-79
2023/05/26 05:08:22;;;;;;;19.95;7.40;;;;;;;13.59;100.00;97961.16;6160146;23;20707;-79
2023/05/26 05:10:48;;;;;;;20.13;8.00;;;;;;;13.73;100.00;97966.84;6158822;23;20387;-79
2023/05/26 05:13:15;;;;;;;19.08;8.00;;;;;;;13.58;100.00;97975.53;6158247;23;20371;-79
2023/05/26 05:15:42;;;;;;;17.98;7.65;;;;;;;13.65;100.00;97972.63;6158478;23;20382;-79
2023/05/26 05:18:08;;;;;;;17.17;7.30;;;;;;;13.65;100.00;97973.44;6159928;23;20402;-79
2023/05/26 05:20:34;;;;;;;18.42;7.45;;;;;;;13.67;100.00;97979.31;6159421;23;20367;-79
2023/05/26 05:23:01;;;;;;;14.93;7.85;;;;;;;13.59;100.00;97981.66;6157201;23;20699;-79
2023/05/26 05:25:27;;;;;;;14.73;7.55;;;;;;;13.47;100.00;97979.16;6159076;23;20466;-79
2023/05/26 05:27:53;;;;;;;20.30;7.72;;;;;;;13.55;100.00;97978.69;6158889;23;20378;-80
2023/05/26 05:30:22;;;;;;;20.05;7.88;;;;;;;13.61;100.00;97987.53;6158767;23;20422;-78
2023/05/26 05:32:48;;;;;;;18.92;7.93;;;;;;;13.53;100.00;97986.91;6156735;23;20403;-81
2023/05/26 05:35:14;;;;;;;16.17;7.65;;;;;;;13.56;100.00;97989.06;6156817;23;20370;-80
2023/05/26 05:37:41;;;;;;;17.77;7.63;;;;;;;13.58;100.00;97996.81;6131077;23;20381;-80
2023/05/26 05:40:09;;;;;;;19.67;8.10;;;;;;;13.70;100.00;98002.72;6157735;23;20371;-79
2023/05/26 05:42:35;;;;;;;18.08;7.60;;;;;;;13.74;100.00;98005.69;6158310;23;20758;-80
2023/05/26 05:45:02;;;;;;;18.65;7.75;;;;;;;13.82;100.00;98003.38;6130999;23;20402;-81
2023/05/26 05:47:29;;;;;;;18.75;7.82;;;;;;;13.86;100.00;98006.31;6157211;23;20433;-80
2023/05/26 05:49:55;;;;;;;15.45;7.07;;;;;;;13.91;100.00;98001.00;6157700;23;20386;-79
2023/05/26 05:52:22;;;;;;;20.15;8.10;;;;;;;14.05;100.00;98009.34;6157592;23;20386;-80
2023/05/26 05:54:48;;;;;;;18.52;8.07;;;;;;;14.10;100.00;98006.72;6157202;23;20421;-81
2023/05/26 05:57:14;;;;;;;16.70;7.70;;;;;;;14.12;100.00;98004.59;6157773;23;20371;-80
2023/05/26 05:59:40;;;;;;;21.83;8.05;;;;;;;14.13;100.00;98008.88;6157584;23;20450;-80
2023/05/26 06:02:07;;;;;;;23.25;7.75;;;;;;;14.18;100.00;98006.22;6158616;23;20389;-80
2023/05/26 06:04:35;;;;;;;16.45;8.25;;;;;;;14.19;100.00;98002.50;6159402;23;20399;-80
2023/05/26 06:07:01;;;;;;;16.60;8.35;;;;;;;14.29;100.00;98010.53;6159598;23;20367;-80
2023/05/26 06:09:27;;;;;;;23.33;8.13;;;;;;;14.25;100.00;98010.25;6131927;23;20710;-81
2023/05/26 06:11:55;;;;;;;15.00;7.40;;;;;;;14.25;100.00;98022.78;6158557;23;20454;-81
2023/05/26 06:14:21;;;;;;;17.13;8.55;;;;;;;14.34;100.00;98024.69;6158623;23;20371;-81
2023/05/26 06:16:47;;;;;;;21.07;8.23;;;;;;;14.51;100.00;98021.06;6159037;23;20367;-81
2023/05/26 06:19:13;;;;;;;17.98;8.35;;;;;;;14.45;100.00;98017.56;6158940;23;20439;-81
2023/05/26 06:21:41;;;;;;;20.23;8.85;;;;;;;14.43;100.00;98021.56;6159258;23;20363;-79
2023/05/26 06:24:08;;;;;;;25.88;9.07;;;;;;;14.43;100.00;98029.56;6158329;23;20420;-80
2023/05/26 06:26:34;;;;;;;19.10;8.50;;;;;;;14.46;100.00;98021.03;6160403;23;20416;-80
2023/05/26 06:29:00;;;;;;;19.05;8.52;;;;;;;14.58;100.00;98022.44;6159154;23;20399;-81
2023/05/26 06:31:28;;;;;;;23.20;9.05;;;;;;;14.72;100.00;98014.75;6158813;23;20735;-81
2023/05/26 06:33:55;;;;;;;17.55;8.93;;;;;;;14.57;100.00;98020.03;6158505;23;20373;-79
2023/05/26 06:36:21;;;;;;;19.70;8.77;;;;;;;14.43;100.00;98018.91;6156636;23;20458;-79
2023/05/26 06:38:48;;;;;;;21.55;9.23;;;;;;;14.67;100.00;98023.50;6155490;23;20489;-80
2023/05/26 06:41:15;;;;;;;22.35;8.68;;;;;;;14.69;100.00;98017.91;6132655;23;20873;-80
2023/05/26 06:43:41;;;;;;;14.80;8.48;;;;;;;14.83;100.00;98024.34;6158739;23;20371;-80
2023/05/26 06:46:07;;;;;;;22.77;9.00;;;;;;;14.88;100.00;98026.25;6158515;23;20398;-80
2023/05/26 06:48:33;;;;;;;25.77;9.25;;;;;;;14.91;100.00;98023.03;6123807;23;20391;-78
2023/05/26 06:50:59;;;;;;;20.40;9.10;;;;;;;14.81;100.00;98015.03;6122924;23;20414;-78
2023/05/26 06:53:26;;;;;;;18.58;8.68;;;;;;;14.95;100.00;98024.13;6128323;23;20390;-78
2023/05/26 06:55:53;;;;;;;28.65;9.27;;;;;;;14.96;100.00;98023.06;6155559;23;20371;-78
2023/05/26 06:58:20;;;;;;;23.25;9.20;;;;;;;15.05;97.53;98024.13;6155366;23;20462;-77
2023/05/26 07:00:56;;;;;;;25.05;9.20;;;;;;;14.65;96.89;98030.97;6154575;23;20367;-79
2023/05/26 07:03:23;;;;;;;18.90;8.10;;;;;;;14.79;98.84;98017.97;6155183;23;21111;-78
2023/05/26 07:05:51;;;;;;;18.13;8.40;;;;;;;14.97;100.00;98030.78;6130754;23;20379;-79
2023/05/26 07:08:17;;;;;;;20.45;9.02;;;;;;;15.05;98.83;98032.13;6156624;23;20371;-79
2023/05/26 07:10:43;;;;;;;17.83;9.13;;;;;;;15.24;98.58;98030.59;6157274;23;20379;-78
2023/05/26 07:13:11;;;;;;;21.73;9.10;;;;;;;15.34;96.88;98035.91;6155425;23;20449;-80
2023/05/26 07:15:37;;;;;;;25.85;9.95;;;;;;;15.37;97.29;98029.25;6155571;23;20736;-79
2023/05/26 07:18:03;;;;;;;48.80;10.13;;;;;;;15.38;99.00;98026.31;6154860;23;20819;-79
2023/05/26 07:20:30;;;;;;;27.52;9.80;;;;;;;15.48;98.52;98037.00;6154679;23;20855;-79
2023/05/26 07:22:56;;;;;;;38.35;9.68;;;;;;;15.58;97.17;98027.41;6154273;23;20371;-78
2023/05/26 07:25:22;;;;;;;19.45;8.48;;;;;;;15.59;96.01;98032.50;6154124;23;20850;-79
2023/05/26 07:27:48;;;;;;;22.77;8.75;;;;;;;15.64;95.73;98032.47;6155256;23;20450;-79
2023/05/26 07:30:16;;;;;;;19.90;8.65;;;;;;;15.67;91.93;98033.81;6153891;23;20378;-80
2023/05/26 07:32:44;;;;;;;18.52;8.43;;;;;;;15.78;90.46;98036.25;6154008;23;20367;-80
2023/05/26 07:35:11;;;;;;;21.23;8.82;;;;;;;15.80;92.13;98036.75;6155661;23;20426;-79
2023/05/26 07:37:38;;;;;;;16.73;8.27;;;;;;;15.88;93.59;98028.19;6155101;23;20498;-79
2023/05/26 07:40:06;;;;;;;27.25;9.50;;;;;;;15.91;95.37;98034.06;6156804;23;20374;-79
2023/05/26 07:42:33;;;;;;;21.02;8.95;;;;;;;15.96;96.18;98032.19;6158109;23;20680;-79
2023/05/26 07:45:00;;;;;;;21.10;8.52;;;;;;;16.02;95.89;98028.44;6157907;23;20401;-80
2023/05/26 07:47:31;;;;;;;19.88;8.85;;;;;;;16.01;89.18;98028.72;6154452;23;20377;-80
2023/05/26 07:49:57;;;;;;;24.63;9.65;;;;;;;16.04;89.29;98033.50;6155693;23;20406;-79
2023/05/26 07:52:24;;;;;;;23.50;9.70;;;;;;;16.22;90.55;98032.94;6155397;23;20382;-78
2023/05/26 07:54:50;;;;;;;35.58;9.07;;;;;;;16.26;92.98;98026.78;6155184;23;20382;-78
2023/05/26 07:57:16;;;;;;;19.90;8.18;;;;;;;16.37;93.34;98035.59;6155605;23;20768;-79
2023/05/26 07:59:43;;;;;;;22.38;7.70;;;;;;;16.49;92.90;98030.72;6154649;23;20371;-78
2023/05/26 08:02:10;;;;;;;25.95;9.48;;;;;;;16.52;89.33;98030.19;6155590;23;20364;-79
2023/05/26 08:04:38;;;;;;;19.95;8.40;;;;;;;16.70;90.31;98036.81;6156373;23;20767;-80
2023/05/26 08:07:05;;;;;;;28.15;9.60;;;;;;;16.83;89.19;98036.22;6159402;23;20382;-79
2023/05/26 08:09:31;;;;;;;25.77;8.43;;;;;;;16.93;89.49;98030.81;6156065;23;20367;-79
2023/05/26 08:11:57;;;;;;;20.35;8.85;;;;;;;16.87;85.11;98031.91;6155547;23;20417;-79
2023/05/26 08:14:24;;;;;;;77.00;24.00;;;;;;;17.13;87.03;98037.13;6157663;23;20454;-79
2023/05/26 08:16:50;;;;;;;26.42;10.20;;;;;;;17.19;85.47;98034.16;6132669;23;20409;-78
2023/05/26 08:19:16;;;;;;;26.65;10.52;;;;;;;17.34;87.10;98030.56;6160802;23;20398;-80
2023/05/26 08:21:44;;;;;;;22.42;9.10;;;;;;;17.20;83.31;98033.06;6163026;23;20871;-79
2023/05/26 08:24:10;;;;;;;30.20;10.48;;;;;;;17.45;86.01;98031.28;6161245;23;20374;-80
2023/05/26 08:26:36;;;;;;;21.58;9.25;;;;;;;17.39;80.88;98034.00;6159573;23;20370;-78
2023/05/26 08:29:02;;;;;;;24.23;9.30;;;;;;;17.17;80.27;98030.94;6131237;23;20375;-79
2023/05/26 08:31:28;;;;;;;21.40;8.65;;;;;;;17.48;84.23;98025.38;6158661;23;20525;-78
2023/05/26 08:33:55;;;;;;;25.95;9.35;;;;;;;17.72;80.67;98027.09;6159087;23;20371;-79
2023/05/26 08:36:21;;;;;;;22.80;8.13;;;;;;;17.80;82.14;98036.38;6159841;23;20391;-77
2023/05/26 08:38:49;;;;;;;20.60;8.52;;;;;;;18.03;82.95;98030.28;6143218;23;20422;-78
2023/05/26 08:41:18;;;;;;;27.73;9.45;;;;;;;17.74;77.64;98032.16;6165132;23;20466;-78
2023/05/26 08:43:46;;;;;;;32.38;8.50;;;;;;;17.94;82.26;98018.59;6129983;23;20386;-79
2023/05/26 08:46:12;;;;;;;24.33;9.20;;;;;;;18.15;82.44;98029.88;6156222;23;20371;-78
2023/05/26 08:48:40;;;;;;;29.93;8.53;;;;;;;18.30;78.04;98021.69;6128807;23;20835;-78
2023/05/26 08:51:09;;;;;;;23.00;8.43;;;;;;;18.47;80.73;98032.75;6156208;23;20692;-79
2023/05/26 08:53:37;;;;;;;20.67;8.10;;;;;;;18.63;79.27;98033.41;6156696;23;20456;-79
2023/05/26 08:56:06;;;;;;;20.77;9.27;;;;;;;18.79;79.00;98040.19;6159336;23;20823;-78
2023/05/26 08:58:34;;;;;;;19.10;9.25;;;;;;;18.61;74.21;98032.09;6157865;23;20398;-79
2023/05/26 09:01:01;;;;;;;27.33;8.87;;;;;;;18.76;73.46;98030.00;6158335;23;20367;-79
2023/05/26 09:03:28;;;;;;;23.90;9.25;;;;;;;18.76;74.60;98035.38;6155256;23;20426;-79
2023/05/26 09:05:54;;;;;;;20.23;9.13;;;;;;;18.89;74.83;98033.84;6152446;23;20711;-77
2023/05/26 09:08:20;;;;;;;21.45;9.00;;;;;;;18.88;73.42;98027.69;6154151;23;20457;-77
2023/05/26 09:10:47;;;;;;;25.00;8.52;;;;;;;19.06;75.88;98036.06;6151773;23;20387;-78
2023/05/26 09:13:20;;;;;;;21.75;9.32;;;;;;;18.70;72.39;98025.00;6153135;23;20463;-77
2023/05/26 09:15:51;;;;;;;27.20;8.00;;;;;;;19.09;76.54;98033.59;6154535;23;20367;-77
2023/05/26 09:18:18;;;;;;;19.55;8.52;;;;;;;19.33;75.81;98038.88;6152000;23;20688;-76
2023/05/26 09:20:46;;;;;;;34.72;12.77;;;;;;;19.65;76.16;98040.81;6153635;23;20379;-77
2023/05/26 09:23:14;;;;;;;23.85;9.15;;;;;;;19.66;71.93;98037.84;6154305;23;20747;-77
2023/05/26 09:25:42;;;;;;;22.45;9.10;;;;;;;19.47;69.13;98033.63;6155678;23;20371;-77
2023/05/26 09:28:10;;;;;;;26.67;8.25;;;;;;;19.78;72.40;98039.25;6165807;23;20665;-77
2023/05/26 09:30:39;;;;;;;26.70;8.63;;;;;;;20.08;72.53;98033.34;6155659;23;20375;-77
2023/05/26 09:33:08;;;;;;;37.03;11.98;;;;;;;20.29;73.52;98034.59;6153974;23;20909;-77
2023/05/26 09:35:35;;;;;;;22.10;8.30;;;;;;;20.51;72.84;98043.91;6155136;23;20446;-78
2023/05/26 09:38:03;;;;;;;21.08;9.30;;;;;;;20.51;68.68;98036.63;6155363;23;20418;-78
2023/05/26 09:40:31;;;;;;;39.65;9.77;;;;;;;20.77;70.84;98039.59;6155375;23;20399;-79
2023/05/26 09:42:58;;;;;;;22.17;9.43;;;;;;;20.74;66.86;98035.63;6154622;23;20715;-79
2023/05/26 09:45:25;;;;;;;19.35;8.57;;;;;;;20.78;66.64;98039.28;6155076;23;20366;-79
2023/05/26 09:47:56;;;;;;;25.58;7.90;;;;;;;21.12;68.85;98036.16;6155098;23;20371;-78
2023/05/26 09:50:23;;;;;;;20.10;8.02;;;;;;;21.29;66.41;98040.09;6154465;23;20403;-78
2023/05/26 09:52:50;;;;;;;21.40;8.82;;;;;;;21.38;64.12;98038.28;6156520;23;20390;-77
2023/05/26 09:55:17;;;;;;;26.65;8.77;;;;;;;21.61;65.74;98039.88;6159768;23;20458;-78
2023/05/26 09:57:45;;;;;;;18.10;6.80;;;;;;;21.77;63.96;98040.31;6159173;23;20370;-77
2023/05/26 10:00:18;;;;;;;25.30;7.85;;;;;;;21.84;62.09;98036.06;6156506;23;20367;-78
2023/05/26 10:02:47;;;;;;;28.92;7.50;;;;;;;22.21;63.42;98036.78;6155796;23;20827;-78
2023/05/26 10:05:17;;;;;;;26.95;7.10;;;;;;;22.65;62.03;98038.53;6156037;23;20391;-80
2023/05/26 10:07:45;;;;;;;20.13;7.70;;;;;;;22.82;58.13;98033.22;6157580;23;20815;-79
2023/05/26 10:10:13;;;;;;;23.02;7.43;;;;;;;23.31;59.93;98031.19;6156086;23;20374;-78
2023/05/26 10:12:41;;;;;;;20.02;8.75;;;;;;;23.59;60.03;98029.00;6156935;23;20410;-79
2023/05/26 10:15:09;;;;;;;18.13;7.53;;;;;;;23.80;55.48;98028.00;6156205;23;20373;-79
2023/05/26 10:17:35;;;;;;;15.13;6.97;;;;;;;23.85;56.92;98022.41;6155894;23;20373;-79
2023/05/26 10:20:04;;;;;;;16.50;6.78;;;;;;;24.01;56.71;98027.31;6155882;23;20385;-77
2023/05/26 10:22:39;;;;;;;15.70;6.13;;;;;;;24.38;57.10;98031.97;6155781;23;20812;-79
2023/05/26 10:25:11;;;;;;;18.38;7.28;;;;;;;24.67;55.46;98033.91;6127396;23;20438;-78
2023/05/26 10:27:44;;;;;;;18.55;8.02;;;;;;;24.00;52.79;98034.63;6155374;23;20371;-78
2023/05/26 10:30:15;;;;;;;23.98;7.50;;;;;;;24.19;54.70;98034.25;6156310;23;20451;-79
2023/05/26 10:32:46;;;;;;;16.80;7.15;;;;;;;24.69;56.22;98034.38;6155289;23;20394;-78
2023/05/26 10:35:23;;;;;;;14.93;6.40;;;;;;;24.78;54.21;98034.34;6156077;23;20707;-77
2023/05/26 10:37:57;;;;;;;16.30;6.90;;;;;;;24.89;52.87;98039.03;6129502;23;20375;-79
2023/05/26 10:40:40;;;;;;;15.45;6.90;;;;;;;24.85;54.04;98034.63;6156383;23;20422;-80
2023/05/26 10:43:13;;;;;;;19.15;6.70;;;;;;;25.04;52.74;98027.66;6143371;23;20382;-79
2023/05/26 10:45:44;;;;;;;15.48;6.93;;;;;;;25.01;53.82;98035.66;6155986;23;20371;-78
2023/05/26 10:48:11;;;;;;;14.35;7.13;;;;;;;25.24;52.41;98028.81;6154719;23;20707;-78
2023/05/26 10:51:08;;;;;;;15.63;6.45;;;;;;;25.27;53.71;98030.84;6152483;23;20402;-78
2023/05/26 10:53:41;;;;;;;16.97;7.03;;;;;;;25.10;51.03;98024.78;6147144;23;20403;-78
2023/05/26 10:56:08;;;;;;;18.15;7.53;;;;;;;25.22;51.42;98028.34;6155206;23;20378;-80
2023/05/26 10:58:36;;;;;;;17.88;7.30;;;;;;;24.53;49.07;98031.44;6155349;23;20374;-79
2023/05/26 11:01:04;;;;;;;20.23;8.05;;;;;;;24.61;50.96;98027.09;6155434;23;20371;-79
2023/05/26 11:03:35;;;;;;;15.85;7.05;;;;;;;24.66;50.91;98026.91;6155068;23;20747;-79
2023/05/26 11:06:02;;;;;;;14.40;7.03;;;;;;;24.91;53.08;98025.19;6155036;23;20395;-78
2023/05/26 11:08:37;;;;;;;19.35;7.78;;;;;;;25.15;50.56;98024.56;6155422;23;20460;-78
2023/05/26 11:11:05;;;;;;;15.07;6.65;;;;;;;25.16;52.04;98031.56;6155462;23;20387;-80
2023/05/26 11:13:49;;;;;;;22.58;6.65;;;;;;;25.41;52.74;98027.88;6158182;23;20434;-78
2023/05/26 11:16:23;;;;;;;18.35;6.28;;;;;;;25.25;46.52;98029.59;6156454;23;20402;-77
2023/05/26 11:18:51;;;;;;;18.73;6.25;;;;;;;25.13;46.88;98016.75;6155465;23;20375;-78
2023/05/26 11:21:21;;;;;;;38.25;7.32;;;;;;;25.30;50.66;98015.84;6155196;23;20524;-78
2023/05/26 11:23:52;;;;;;;245.75;13.35;;;;;;;25.55;51.13;98017.53;6128432;23;20378;-78